createdAt,value
2017-09-28T00:00:07.021Z,0
2017-09-28T00:00:47.639Z,0
2017-09-28T00:01:28.224Z,0
2017-09-28T00:02:08.810Z,0
2017-09-28T00:02:49.408Z,0
2017-09-28T00:03:30.007Z,0
2017-09-28T00:04:10.598Z,0
2017-09-28T00:04:51.204Z,0
2017-09-28T00:05:31.807Z,0
2017-09-28T00:06:12.395Z,0
2017-09-28T00:06:52.966Z,0
2017-09-28T00:07:33.559Z,0
2017-09-28T00:08:14.143Z,0
2017-09-28T00:08:54.703Z,0
2017-09-28T00:09:35.282Z,0
2017-09-28T00:10:15.852Z,0
2017-09-28T00:10:56.471Z,0
2017-09-28T00:11:37.068Z,0
2017-09-28T00:12:17.653Z,0
2017-09-28T00:12:58.226Z,0
2017-09-28T00:13:38.813Z,0
2017-09-28T00:14:19.399Z,0
2017-09-28T00:14:59.993Z,0
2017-09-28T00:15:40.624Z,0
2017-09-28T00:16:21.208Z,0
2017-09-28T00:17:01.860Z,0
2017-09-28T00:17:42.404Z,0
2017-09-28T00:18:22.968Z,0
2017-09-28T00:19:03.562Z,0
2017-09-28T00:19:44.163Z,0
2017-09-28T00:20:24.768Z,0
2017-09-28T00:21:05.380Z,0
2017-09-28T00:21:45.989Z,0
2017-09-28T00:22:26.616Z,0
2017-09-28T00:23:07.194Z,0
2017-09-28T00:23:47.765Z,0
2017-09-28T00:24:28.398Z,0
2017-09-28T00:25:08.972Z,0
2017-09-28T00:25:49.602Z,0
2017-09-28T00:26:30.174Z,0
2017-09-28T00:27:10.745Z,0
2017-09-28T00:27:51.357Z,0
2017-09-28T00:28:31.965Z,0
2017-09-28T00:29:12.543Z,0
2017-09-28T00:29:53.136Z,0
2017-09-28T00:30:33.705Z,0
2017-09-28T00:31:14.321Z,0
2017-09-28T00:31:54.972Z,0
2017-09-28T00:32:35.577Z,0
2017-09-28T00:33:16.168Z,0
2017-09-28T00:33:56.748Z,0
2017-09-28T00:34:37.357Z,0
2017-09-28T00:35:17.989Z,0
2017-09-28T00:35:58.587Z,0
2017-09-28T00:36:39.168Z,0
2017-09-28T00:37:19.755Z,0
2017-09-28T00:38:00.318Z,0
2017-09-28T00:38:41.006Z,0
2017-09-28T00:39:21.584Z,0
2017-09-28T00:40:02.175Z,0
2017-09-28T00:40:42.795Z,0
2017-09-28T00:41:23.355Z,0
2017-09-28T00:42:03.950Z,0
2017-09-28T00:42:44.538Z,0
2017-09-28T00:43:25.148Z,0
2017-09-28T00:44:05.760Z,0
2017-09-28T00:44:46.370Z,0
2017-09-28T00:45:26.991Z,0
2017-09-28T00:46:07.588Z,0
2017-09-28T00:46:48.179Z,0
2017-09-28T00:47:28.781Z,0
2017-09-28T00:48:09.447Z,0
2017-09-28T00:48:50.049Z,0
2017-09-28T00:49:30.628Z,0
2017-09-28T00:50:11.212Z,0
2017-09-28T00:50:51.792Z,0
2017-09-28T00:51:32.385Z,0
2017-09-28T00:52:12.985Z,0
2017-09-28T00:52:53.602Z,0
2017-09-28T00:53:34.175Z,0
2017-09-28T00:54:14.778Z,0
2017-09-28T00:54:55.404Z,0
2017-09-28T00:55:36.012Z,0
2017-09-28T00:56:16.631Z,0
2017-09-28T00:56:57.251Z,0
2017-09-28T00:57:37.827Z,0
2017-09-28T00:58:18.405Z,0
2017-09-28T00:58:59.009Z,0
2017-09-28T00:59:39.626Z,0
2017-09-28T01:00:20.218Z,0
2017-09-28T01:01:00.820Z,0
2017-09-28T01:01:41.417Z,0
2017-09-28T01:02:21.979Z,0
2017-09-28T01:03:02.555Z,0
2017-09-28T01:03:43.153Z,0
2017-09-28T01:04:23.729Z,0
2017-09-28T01:05:04.347Z,0
2017-09-28T01:05:44.958Z,0
2017-09-28T01:06:25.573Z,0
2017-09-28T01:07:06.149Z,0
2017-09-28T01:07:46.716Z,0
2017-09-28T01:08:27.306Z,0
2017-09-28T01:09:07.965Z,0
2017-09-28T01:09:48.537Z,0
2017-09-28T01:10:29.109Z,0
2017-09-28T01:11:09.734Z,0
2017-09-28T01:11:50.307Z,0
2017-09-28T01:12:30.881Z,0
2017-09-28T01:13:11.474Z,0
2017-09-28T01:13:52.079Z,0
2017-09-28T01:14:32.679Z,0
2017-09-28T01:15:13.271Z,0
2017-09-28T01:15:53.869Z,0
2017-09-28T01:16:34.490Z,0
2017-09-28T01:17:15.093Z,0
2017-09-28T01:17:55.683Z,0
2017-09-28T01:18:36.308Z,0
2017-09-28T01:19:16.887Z,0
2017-09-28T01:19:57.514Z,0
2017-09-28T01:20:38.100Z,0
2017-09-28T01:21:18.677Z,0
2017-09-28T01:21:59.326Z,0
2017-09-28T01:22:39.910Z,0
2017-09-28T01:23:20.490Z,0
2017-09-28T01:24:01.091Z,0
2017-09-28T01:24:41.721Z,0
2017-09-28T01:25:22.329Z,0
2017-09-28T01:26:02.918Z,0
2017-09-28T01:26:43.508Z,0
2017-09-28T01:27:24.086Z,0
2017-09-28T01:28:04.673Z,0
2017-09-28T01:28:45.241Z,0
2017-09-28T01:29:25.818Z,0
2017-09-28T01:30:06.396Z,0
2017-09-28T01:30:46.971Z,0
2017-09-28T01:31:27.552Z,0
2017-09-28T01:32:08.187Z,0
2017-09-28T01:32:48.789Z,0
2017-09-28T01:33:29.380Z,0
2017-09-28T01:34:09.956Z,0
2017-09-28T01:34:50.533Z,0
2017-09-28T01:35:31.105Z,0
2017-09-28T01:36:11.686Z,0
2017-09-28T01:36:52.290Z,0
2017-09-28T01:37:32.873Z,0
2017-09-28T01:38:13.449Z,0
2017-09-28T01:38:54.031Z,0
2017-09-28T01:39:34.654Z,0
2017-09-28T01:40:15.223Z,0
2017-09-28T01:40:55.799Z,0
2017-09-28T01:41:36.383Z,0
2017-09-28T01:42:16.959Z,0
2017-09-28T01:42:57.553Z,0
2017-09-28T01:43:38.165Z,0
2017-09-28T01:44:18.781Z,0
2017-09-28T01:44:59.343Z,0
2017-09-28T01:45:39.918Z,0
2017-09-28T01:46:20.517Z,0
2017-09-28T01:47:01.134Z,0
2017-09-28T01:47:41.727Z,0
2017-09-28T01:48:22.318Z,0
2017-09-28T01:49:02.926Z,0
2017-09-28T01:49:43.520Z,0
2017-09-28T01:50:24.121Z,0
2017-09-28T01:51:04.705Z,0
2017-09-28T01:51:45.311Z,0
2017-09-28T01:52:25.897Z,0
2017-09-28T01:53:06.478Z,0
2017-09-28T01:53:47.122Z,0
2017-09-28T01:54:27.721Z,0
2017-09-28T01:55:08.296Z,0
2017-09-28T01:55:48.900Z,0
2017-09-28T01:56:29.757Z,0
2017-09-28T01:57:10.402Z,0
2017-09-28T01:57:51.041Z,0
2017-09-28T01:58:31.622Z,0
2017-09-28T01:59:12.251Z,0
2017-09-28T01:59:52.874Z,0
2017-09-28T02:00:33.940Z,0
2017-09-28T02:01:14.619Z,0
2017-09-28T02:01:55.261Z,0
2017-09-28T02:02:35.874Z,0
2017-09-28T02:03:16.457Z,0
2017-09-28T02:03:57.100Z,0
2017-09-28T02:04:37.681Z,0
2017-09-28T02:05:18.268Z,0
2017-09-28T02:05:58.863Z,0
2017-09-28T02:06:39.488Z,0
2017-09-28T02:07:20.085Z,0
2017-09-28T02:08:00.809Z,0
2017-09-28T02:08:41.381Z,0
2017-09-28T02:09:22.123Z,0
2017-09-28T02:10:02.786Z,0
2017-09-28T02:10:43.375Z,0
2017-09-28T02:11:24.057Z,0
2017-09-28T02:12:04.591Z,0
2017-09-28T02:12:45.366Z,0
2017-09-28T02:13:25.953Z,0
2017-09-28T02:14:06.539Z,0
2017-09-28T02:14:47.133Z,0
2017-09-28T02:15:27.780Z,0
2017-09-28T02:16:08.378Z,0
2017-09-28T02:16:48.959Z,0
2017-09-28T02:17:29.564Z,0
2017-09-28T02:18:10.128Z,0
2017-09-28T02:18:50.776Z,0
2017-09-28T02:19:31.394Z,0
2017-09-28T02:20:11.977Z,0
2017-09-28T02:20:52.602Z,0
2017-09-28T02:21:33.179Z,0
2017-09-28T02:22:13.790Z,0
2017-09-28T02:22:54.387Z,0
2017-09-28T02:23:34.979Z,0
2017-09-28T02:24:15.568Z,0
2017-09-28T02:24:56.158Z,0
2017-09-28T02:25:36.750Z,0
2017-09-28T02:26:17.359Z,0
2017-09-28T02:26:58.012Z,0
2017-09-28T02:27:38.606Z,0
2017-09-28T02:28:19.195Z,0
2017-09-28T02:28:59.774Z,0
2017-09-28T02:29:40.378Z,0
2017-09-28T02:30:20.979Z,0
2017-09-28T02:31:01.609Z,0
2017-09-28T02:31:42.257Z,0
2017-09-28T02:32:22.903Z,0
2017-09-28T02:33:03.504Z,0
2017-09-28T02:33:44.105Z,0
2017-09-28T02:34:24.723Z,0
2017-09-28T02:35:05.286Z,0
2017-09-28T02:35:45.889Z,0
2017-09-28T02:36:26.517Z,0
2017-09-28T02:37:07.094Z,0
2017-09-28T02:37:47.688Z,0
2017-09-28T02:38:28.274Z,0
2017-09-28T02:39:08.874Z,0
2017-09-28T02:39:49.479Z,0
2017-09-28T02:40:30.068Z,0
2017-09-28T02:41:10.680Z,0
2017-09-28T02:41:51.320Z,0
2017-09-28T02:42:31.886Z,0
2017-09-28T02:43:12.493Z,0
2017-09-28T02:43:53.096Z,0
2017-09-28T02:44:33.684Z,0
2017-09-28T02:45:14.274Z,0
2017-09-28T02:45:54.884Z,0
2017-09-28T02:46:35.508Z,0
2017-09-28T02:47:16.058Z,0
2017-09-28T02:47:56.634Z,0
2017-09-28T02:48:37.247Z,0
2017-09-28T02:49:17.836Z,0
2017-09-28T02:49:58.446Z,0
2017-09-28T02:50:39.009Z,0
2017-09-28T02:51:19.579Z,0
2017-09-28T02:52:00.186Z,0
2017-09-28T02:52:40.771Z,0
2017-09-28T02:53:21.396Z,0
2017-09-28T02:54:02.006Z,0
2017-09-28T02:54:42.570Z,0
2017-09-28T02:55:23.193Z,0
2017-09-28T02:56:03.821Z,0
2017-09-28T02:56:44.372Z,0
2017-09-28T02:57:24.949Z,0
2017-09-28T02:58:05.566Z,0
2017-09-28T02:58:46.138Z,0
2017-09-28T02:59:26.707Z,0
2017-09-28T03:00:07.292Z,0
2017-09-28T03:00:47.852Z,0
2017-09-28T03:01:28.432Z,0
2017-09-28T03:02:09.007Z,0
2017-09-28T03:02:49.577Z,0
2017-09-28T03:03:30.165Z,0
2017-09-28T03:04:10.766Z,0
2017-09-28T03:04:51.364Z,0
2017-09-28T03:05:31.926Z,0
2017-09-28T03:06:12.500Z,0
2017-09-28T03:06:53.082Z,0
2017-09-28T03:07:33.696Z,0
2017-09-28T03:08:14.277Z,0
2017-09-28T03:08:54.906Z,0
2017-09-28T03:09:35.485Z,0
2017-09-28T03:10:16.069Z,0
2017-09-28T03:10:56.645Z,0
2017-09-28T03:11:37.212Z,0
2017-09-28T03:12:17.807Z,0
2017-09-28T03:12:58.413Z,0
2017-09-28T03:13:39.022Z,0
2017-09-28T03:14:19.600Z,0
2017-09-28T03:15:00.226Z,0
2017-09-28T03:15:40.821Z,0
2017-09-28T03:16:21.398Z,0
2017-09-28T03:17:01.998Z,0
2017-09-28T03:17:42.591Z,0
2017-09-28T03:18:23.218Z,0
2017-09-28T03:19:03.818Z,0
2017-09-28T03:19:44.452Z,0
2017-09-28T03:20:25.067Z,0
2017-09-28T03:21:05.629Z,0
2017-09-28T03:21:46.191Z,0
2017-09-28T03:22:26.756Z,0
2017-09-28T03:23:07.336Z,0
2017-09-28T03:23:47.918Z,0
2017-09-28T03:24:28.525Z,0
2017-09-28T03:25:09.107Z,0
2017-09-28T03:25:49.703Z,0
2017-09-28T03:26:30.263Z,0
2017-09-28T03:27:10.835Z,0
2017-09-28T03:27:51.415Z,0
2017-09-28T03:28:32.017Z,0
2017-09-28T03:29:12.595Z,0
2017-09-28T03:29:53.161Z,0
2017-09-28T03:30:33.747Z,0
2017-09-28T03:31:14.312Z,0
2017-09-28T03:31:54.888Z,0
2017-09-28T03:32:35.496Z,0
2017-09-28T03:33:16.094Z,0
2017-09-28T03:33:56.697Z,0
2017-09-28T03:34:37.293Z,0
2017-09-28T03:35:17.865Z,0
2017-09-28T03:35:58.488Z,0
2017-09-28T03:36:39.079Z,0
2017-09-28T03:37:19.671Z,0
2017-09-28T03:38:00.247Z,0
2017-09-28T03:38:40.842Z,0
2017-09-28T03:39:21.436Z,0
2017-09-28T03:40:02.036Z,0
2017-09-28T03:40:42.652Z,0
2017-09-28T03:41:23.226Z,0
2017-09-28T03:42:03.790Z,0
2017-09-28T03:42:44.388Z,0
2017-09-28T03:43:24.977Z,0
2017-09-28T03:44:05.586Z,0
2017-09-28T03:44:46.158Z,0
2017-09-28T03:45:26.759Z,0
2017-09-28T03:46:07.347Z,0
2017-09-28T03:46:47.936Z,0
2017-09-28T03:47:28.530Z,0
2017-09-28T03:48:09.139Z,0
2017-09-28T03:48:49.714Z,0
2017-09-28T03:49:30.345Z,0
2017-09-28T03:50:10.949Z,0
2017-09-28T03:50:51.544Z,0
2017-09-28T03:51:32.121Z,0
2017-09-28T03:52:12.687Z,0
2017-09-28T03:52:53.292Z,0
2017-09-28T03:53:33.874Z,0
2017-09-28T03:54:14.426Z,0
2017-09-28T03:54:54.996Z,0
2017-09-28T03:55:35.579Z,0
2017-09-28T03:56:16.139Z,0
2017-09-28T03:56:56.714Z,0
2017-09-28T03:57:37.285Z,0
2017-09-28T03:58:17.855Z,0
2017-09-28T03:58:58.425Z,0
2017-09-28T03:59:39.000Z,0
2017-09-28T04:00:19.618Z,0
2017-09-28T04:01:00.207Z,0
2017-09-28T04:01:40.792Z,0
2017-09-28T04:02:21.394Z,0
2017-09-28T04:03:01.982Z,0
2017-09-28T04:03:42.577Z,0
2017-09-28T04:04:23.165Z,0
2017-09-28T04:05:03.774Z,0
2017-09-28T04:05:44.370Z,0
2017-09-28T04:06:24.955Z,0
2017-09-28T04:07:05.520Z,0
2017-09-28T04:07:46.116Z,0
2017-09-28T04:08:26.698Z,0
2017-09-28T04:09:07.277Z,0
2017-09-28T04:09:47.847Z,0
2017-09-28T04:10:28.408Z,0
2017-09-28T04:11:08.967Z,0
2017-09-28T04:11:49.519Z,0
2017-09-28T04:12:30.089Z,0
2017-09-28T04:13:10.678Z,0
2017-09-28T04:13:51.297Z,0
2017-09-28T04:14:31.904Z,0
2017-09-28T04:15:12.499Z,0
2017-09-28T04:15:53.638Z,0
2017-09-28T04:16:34.235Z,0
2017-09-28T04:17:14.854Z,0
2017-09-28T04:17:55.445Z,0
2017-09-28T04:18:36.049Z,0
2017-09-28T04:19:16.618Z,0
2017-09-28T04:19:57.196Z,0
2017-09-28T04:20:37.808Z,0
2017-09-28T04:21:18.424Z,0
2017-09-28T04:21:59.001Z,0
2017-09-28T04:22:39.567Z,0
2017-09-28T04:23:20.144Z,0
2017-09-28T04:24:00.739Z,0
2017-09-28T04:24:41.362Z,0
2017-09-28T04:25:21.962Z,0
2017-09-28T04:26:02.584Z,0
2017-09-28T04:26:43.211Z,0
2017-09-28T04:27:23.861Z,0
2017-09-28T04:28:04.480Z,0
2017-09-28T04:28:45.072Z,0
2017-09-28T04:29:25.683Z,0
2017-09-28T04:30:06.270Z,0
2017-09-28T04:30:46.899Z,0
2017-09-28T04:31:27.498Z,0
2017-09-28T04:32:08.069Z,0
2017-09-28T04:32:48.652Z,0
2017-09-28T04:33:29.262Z,0
2017-09-28T04:34:09.863Z,0
2017-09-28T04:34:50.463Z,0
2017-09-28T04:35:31.130Z,0
2017-09-28T04:36:11.717Z,0
2017-09-28T04:36:52.319Z,0
2017-09-28T04:37:32.912Z,0
2017-09-28T04:38:13.527Z,0
2017-09-28T04:38:54.117Z,0
2017-09-28T04:39:34.735Z,0
2017-09-28T04:40:15.326Z,0
2017-09-28T04:40:55.914Z,0
2017-09-28T04:41:36.507Z,0
2017-09-28T04:42:17.092Z,0
2017-09-28T04:42:57.670Z,0
2017-09-28T04:43:38.265Z,0
2017-09-28T04:44:18.889Z,0
2017-09-28T04:44:59.467Z,0
2017-09-28T04:45:40.053Z,0
2017-09-28T04:46:20.638Z,0
2017-09-28T04:47:01.220Z,0
2017-09-28T04:47:41.802Z,0
2017-09-28T04:48:22.372Z,0
2017-09-28T04:49:03.070Z,0
2017-09-28T04:49:43.653Z,0
2017-09-28T04:50:24.256Z,0
2017-09-28T04:51:04.827Z,0
2017-09-28T04:51:45.424Z,0
2017-09-28T04:52:26.007Z,0
2017-09-28T04:53:06.601Z,0
2017-09-28T04:53:47.209Z,0
2017-09-28T04:54:27.806Z,0
2017-09-28T04:55:08.431Z,0
2017-09-28T04:55:48.991Z,0
2017-09-28T04:56:29.580Z,0
2017-09-28T04:57:10.184Z,0
2017-09-28T04:57:50.745Z,0
2017-09-28T04:58:31.344Z,0
2017-09-28T04:59:11.956Z,0
2017-09-28T04:59:52.562Z,0
2017-09-28T05:00:33.135Z,0
2017-09-28T05:01:13.728Z,0
2017-09-28T05:01:54.348Z,0
2017-09-28T05:02:34.930Z,0
2017-09-28T05:03:15.630Z,0
2017-09-28T05:03:56.216Z,0
2017-09-28T05:04:36.821Z,0
2017-09-28T05:05:17.401Z,0
2017-09-28T05:05:57.993Z,0
2017-09-28T05:06:38.593Z,0
2017-09-28T05:07:19.175Z,0
2017-09-28T05:07:59.743Z,0
2017-09-28T05:08:40.339Z,0
2017-09-28T05:09:20.935Z,0
2017-09-28T05:10:01.534Z,0
2017-09-28T05:10:42.120Z,5
2017-09-28T05:11:22.770Z,5
2017-09-28T05:12:03.349Z,5
2017-09-28T05:12:43.949Z,5
2017-09-28T05:13:24.548Z,5
2017-09-28T05:14:05.140Z,5
2017-09-28T05:14:45.723Z,5
2017-09-28T05:15:26.309Z,5
2017-09-28T05:16:06.931Z,5
2017-09-28T05:16:47.508Z,5
2017-09-28T05:17:28.120Z,5
2017-09-28T05:18:08.699Z,5
2017-09-28T05:18:49.273Z,5
2017-09-28T05:19:29.844Z,5
2017-09-28T05:20:10.437Z,5
2017-09-28T05:20:51.026Z,5
2017-09-28T05:21:31.594Z,10
2017-09-28T05:22:12.216Z,10
2017-09-28T05:22:52.800Z,10
2017-09-28T05:23:33.372Z,10
2017-09-28T05:24:13.979Z,10
2017-09-28T05:24:54.594Z,10
2017-09-28T05:25:35.896Z,10
2017-09-28T05:26:16.583Z,10
2017-09-28T05:26:57.265Z,10
2017-09-28T05:27:37.907Z,10
2017-09-28T05:28:18.500Z,10
2017-09-28T05:28:59.080Z,10
2017-09-28T05:29:39.644Z,10
2017-09-28T05:30:20.261Z,10
2017-09-28T05:31:00.825Z,10
2017-09-28T05:31:41.426Z,15
2017-09-28T05:32:22.092Z,15
2017-09-28T05:33:02.662Z,15
2017-09-28T05:33:43.292Z,15
2017-09-28T05:34:23.911Z,15
2017-09-28T05:35:04.830Z,15
2017-09-28T05:35:45.424Z,15
2017-09-28T05:36:26.021Z,15
2017-09-28T05:37:06.585Z,15
2017-09-28T05:37:47.193Z,15
2017-09-28T05:38:27.829Z,15
2017-09-28T05:39:08.442Z,15
2017-09-28T05:39:49.018Z,15
2017-09-28T05:40:29.596Z,15
2017-09-28T05:41:10.197Z,20
2017-09-28T05:41:50.814Z,20
2017-09-28T05:42:31.410Z,20
2017-09-28T05:43:12.004Z,20
2017-09-28T05:43:52.607Z,20
2017-09-28T05:44:33.226Z,20
2017-09-28T05:45:13.817Z,20
2017-09-28T05:45:54.456Z,20
2017-09-28T05:46:35.022Z,20
2017-09-28T05:47:15.607Z,20
2017-09-28T05:47:56.196Z,20
2017-09-28T05:48:36.814Z,20
2017-09-28T05:49:17.410Z,20
2017-09-28T05:49:58.150Z,25
2017-09-28T05:50:39.500Z,25
2017-09-28T05:51:20.519Z,25
2017-09-28T05:52:01.684Z,25
2017-09-28T05:52:42.256Z,25
2017-09-28T05:53:22.856Z,25
2017-09-28T05:54:03.684Z,25
2017-09-28T05:54:44.870Z,25
2017-09-28T05:55:25.593Z,25
2017-09-28T05:56:07.141Z,25
2017-09-28T05:56:47.722Z,25
2017-09-28T05:57:28.331Z,25
2017-09-28T05:58:08.958Z,25
2017-09-28T05:58:50.120Z,25
2017-09-28T05:59:30.837Z,30
2017-09-28T06:00:12.042Z,30
2017-09-28T06:00:52.773Z,30
2017-09-28T06:01:33.404Z,30
2017-09-28T06:02:13.998Z,30
2017-09-28T06:02:54.596Z,30
2017-09-28T06:03:35.175Z,30
2017-09-28T06:04:15.779Z,35
2017-09-28T06:04:56.353Z,35
2017-09-28T06:05:36.953Z,35
2017-09-28T06:06:17.542Z,40
2017-09-28T06:06:58.146Z,45
2017-09-28T06:07:38.726Z,45
2017-09-28T06:08:19.286Z,50
2017-09-28T06:08:59.874Z,55
2017-09-28T06:09:40.446Z,55
2017-09-28T06:10:21.036Z,60
2017-09-28T06:11:01.625Z,60
2017-09-28T06:11:42.199Z,60
2017-09-28T06:12:22.793Z,60
2017-09-28T06:13:03.384Z,65
2017-09-28T06:13:43.958Z,70
2017-09-28T06:14:24.574Z,70
2017-09-28T06:15:05.144Z,70
2017-09-28T06:15:45.715Z,70
2017-09-28T06:16:26.326Z,70
2017-09-28T06:17:06.893Z,70
2017-09-28T06:17:47.471Z,75
2017-09-28T06:18:28.052Z,75
2017-09-28T06:19:08.641Z,70
2017-09-28T06:19:49.223Z,70
2017-09-28T06:20:29.835Z,70
2017-09-28T06:21:10.403Z,70
2017-09-28T06:21:50.995Z,70
2017-09-28T06:22:31.565Z,75
2017-09-28T06:23:12.198Z,75
2017-09-28T06:23:52.768Z,75
2017-09-28T06:24:33.380Z,80
2017-09-28T06:25:13.982Z,80
2017-09-28T06:25:54.993Z,80
2017-09-28T06:26:35.580Z,80
2017-09-28T06:27:16.206Z,85
2017-09-28T06:27:56.839Z,90
2017-09-28T06:28:37.518Z,90
2017-09-28T06:29:18.135Z,90
2017-09-28T06:29:58.738Z,95
2017-09-28T06:30:39.378Z,95
2017-09-28T06:31:19.999Z,95
2017-09-28T06:32:00.607Z,95
2017-09-28T06:32:41.398Z,95
2017-09-28T06:33:22.004Z,95
2017-09-28T06:34:02.625Z,95
2017-09-28T06:34:43.205Z,95
2017-09-28T06:35:23.821Z,95
2017-09-28T06:36:04.388Z,95
2017-09-28T06:36:44.977Z,95
2017-09-28T06:37:25.575Z,100
2017-09-28T06:38:06.160Z,100
2017-09-28T06:38:46.765Z,100
2017-09-28T06:39:27.417Z,100
2017-09-28T06:40:08.017Z,100
2017-09-28T06:40:48.623Z,100
2017-09-28T06:41:29.212Z,100
2017-09-28T06:42:09.802Z,105
2017-09-28T06:42:50.435Z,105
2017-09-28T06:43:31.028Z,105
2017-09-28T06:44:11.630Z,110
2017-09-28T06:44:52.225Z,110
2017-09-28T06:45:32.865Z,110
2017-09-28T06:46:13.441Z,110
2017-09-28T06:46:54.370Z,110
2017-09-28T06:47:34.975Z,110
2017-09-28T06:48:15.629Z,115
2017-09-28T06:48:56.210Z,115
2017-09-28T06:49:36.879Z,115
2017-09-28T06:50:17.478Z,115
2017-09-28T06:50:58.072Z,115
2017-09-28T06:51:38.646Z,120
2017-09-28T06:52:19.229Z,120
2017-09-28T06:52:59.824Z,120
2017-09-28T06:53:40.397Z,125
2017-09-28T06:54:20.966Z,125
2017-09-28T06:55:01.578Z,125
2017-09-28T06:55:42.224Z,125
2017-09-28T06:56:22.783Z,110
2017-09-28T06:57:03.387Z,110
2017-09-28T06:57:44.054Z,110
2017-09-28T06:58:24.977Z,115
2017-09-28T06:59:05.581Z,125
2017-09-28T06:59:46.177Z,130
2017-09-28T07:00:26.917Z,135
2017-09-28T07:01:07.810Z,135
2017-09-28T07:01:48.533Z,135
2017-09-28T07:02:29.362Z,140
2017-09-28T07:03:10.081Z,140
2017-09-28T07:03:51.024Z,140
2017-09-28T07:04:33.210Z,145
2017-09-28T07:05:13.956Z,145
2017-09-28T07:05:54.582Z,145
2017-09-28T07:06:35.410Z,145
2017-09-28T07:07:16.262Z,150
2017-09-28T07:07:56.927Z,150
2017-09-28T07:08:37.543Z,150
2017-09-28T07:09:18.167Z,155
2017-09-28T07:09:58.834Z,155
2017-09-28T07:10:39.446Z,155
2017-09-28T07:11:20.095Z,160
2017-09-28T07:12:00.774Z,160
2017-09-28T07:12:41.468Z,165
2017-09-28T07:13:22.391Z,165
2017-09-28T07:14:03.059Z,165
2017-09-28T07:14:43.673Z,170
2017-09-28T07:15:24.314Z,165
2017-09-28T07:16:04.927Z,170
2017-09-28T07:16:45.647Z,175
2017-09-28T07:17:26.277Z,175
2017-09-28T07:18:06.868Z,175
2017-09-28T07:18:47.474Z,190
2017-09-28T07:19:28.061Z,240
2017-09-28T07:20:08.700Z,550
2017-09-28T07:20:49.295Z,850
2017-09-28T07:21:29.902Z,1035
2017-09-28T07:22:10.487Z,1125
2017-09-28T07:22:51.134Z,1235
2017-09-28T07:23:31.782Z,1255
2017-09-28T07:24:12.509Z,1255
2017-09-28T07:24:53.163Z,1230
2017-09-28T07:25:33.826Z,1260
2017-09-28T07:26:14.396Z,1255
2017-09-28T07:26:55.021Z,1305
2017-09-28T07:27:35.601Z,1315
2017-09-28T07:28:16.166Z,1305
2017-09-28T07:28:56.786Z,1280
2017-09-28T07:29:37.399Z,1270
2017-09-28T07:30:18.237Z,1290
2017-09-28T07:30:58.860Z,1350
2017-09-28T07:31:39.438Z,1380
2017-09-28T07:32:20.079Z,1275
2017-09-28T07:33:00.740Z,1285
2017-09-28T07:33:41.443Z,1325
2017-09-28T07:34:22.056Z,1380
2017-09-28T07:35:02.767Z,1355
2017-09-28T07:35:43.471Z,1320
2017-09-28T07:36:24.114Z,1280
2017-09-28T07:37:04.738Z,1300
2017-09-28T07:37:45.304Z,1305
2017-09-28T07:38:25.924Z,1315
2017-09-28T07:39:06.504Z,1335
2017-09-28T07:39:47.138Z,1345
2017-09-28T07:40:27.720Z,1365
2017-09-28T07:41:08.372Z,1370
2017-09-28T07:41:48.985Z,1380
2017-09-28T07:42:29.587Z,1350
2017-09-28T07:43:10.242Z,1320
2017-09-28T07:43:51.016Z,1275
2017-09-28T07:44:31.658Z,1245
2017-09-28T07:45:12.333Z,1250
2017-09-28T07:45:52.967Z,1285
2017-09-28T07:46:33.568Z,1335
2017-09-28T07:47:14.150Z,1405
2017-09-28T07:47:54.870Z,1495
2017-09-28T07:48:35.459Z,1485
2017-09-28T07:49:16.043Z,1425
2017-09-28T07:49:56.732Z,1400
2017-09-28T07:50:37.329Z,1405
2017-09-28T07:51:17.966Z,1390
2017-09-28T07:51:58.734Z,1350
2017-09-28T07:52:39.341Z,1295
2017-09-28T07:53:19.942Z,1290
2017-09-28T07:54:00.706Z,1275
2017-09-28T07:54:41.299Z,1290
2017-09-28T07:55:21.926Z,1290
2017-09-28T07:56:02.568Z,1315
2017-09-28T07:56:43.169Z,1295
2017-09-28T07:57:23.763Z,1280
2017-09-28T07:58:04.354Z,1265
2017-09-28T07:58:44.946Z,1280
2017-09-28T07:59:25.593Z,1305
2017-09-28T08:00:06.264Z,1315
2017-09-28T08:00:46.849Z,1305
2017-09-28T08:01:27.441Z,1285
2017-09-28T08:02:08.021Z,1260
2017-09-28T08:02:48.623Z,1250
2017-09-28T08:03:29.217Z,1250
2017-09-28T08:04:09.874Z,1260
2017-09-28T08:04:50.478Z,1285
2017-09-28T08:05:31.092Z,1265
2017-09-28T08:06:11.719Z,1280
2017-09-28T08:06:52.321Z,1305
2017-09-28T08:07:32.935Z,1315
2017-09-28T08:08:13.533Z,1275
2017-09-28T08:08:54.135Z,1240
2017-09-28T08:09:34.744Z,1255
2017-09-28T08:10:15.352Z,1300
2017-09-28T08:10:55.932Z,1315
2017-09-28T08:11:36.606Z,1280
2017-09-28T08:12:17.174Z,1270
2017-09-28T08:12:57.778Z,1290
2017-09-28T08:13:38.464Z,1260
2017-09-28T08:14:19.072Z,1280
2017-09-28T08:14:59.689Z,1285
2017-09-28T08:15:40.309Z,1275
2017-09-28T08:16:20.894Z,1245
2017-09-28T08:17:01.522Z,1255
2017-09-28T08:17:42.099Z,1250
2017-09-28T08:18:22.724Z,1210
2017-09-28T08:19:03.433Z,995
2017-09-28T08:19:44.030Z,700
2017-09-28T08:20:24.644Z,465
2017-09-28T08:21:05.254Z,425
2017-09-28T08:21:45.841Z,410
2017-09-28T08:22:26.446Z,405
2017-09-28T08:23:07.034Z,395
2017-09-28T08:23:47.658Z,390
2017-09-28T08:24:28.259Z,380
2017-09-28T08:25:08.861Z,380
2017-09-28T08:25:49.511Z,370
2017-09-28T08:26:30.120Z,365
2017-09-28T08:27:10.718Z,355
2017-09-28T08:27:51.312Z,350
2017-09-28T08:28:31.899Z,345
2017-09-28T08:29:12.478Z,340
2017-09-28T08:29:53.050Z,330
2017-09-28T08:30:33.666Z,330
2017-09-28T08:31:14.262Z,320
2017-09-28T08:31:54.974Z,320
2017-09-28T08:32:35.571Z,310
2017-09-28T08:33:16.195Z,305
2017-09-28T08:33:56.784Z,300
2017-09-28T08:34:37.375Z,290
2017-09-28T08:35:17.991Z,285
2017-09-28T08:35:58.590Z,285
2017-09-28T08:36:39.245Z,280
2017-09-28T08:37:19.849Z,275
2017-09-28T08:38:00.494Z,270
2017-09-28T08:38:41.096Z,265
2017-09-28T08:39:21.687Z,260
2017-09-28T08:40:02.293Z,255
2017-09-28T08:40:42.891Z,255
2017-09-28T08:41:23.505Z,250
2017-09-28T08:42:04.097Z,250
2017-09-28T08:42:44.689Z,245
2017-09-28T08:43:25.275Z,240
2017-09-28T08:44:05.872Z,240
2017-09-28T08:44:46.476Z,235
2017-09-28T08:45:27.061Z,230
2017-09-28T08:46:07.651Z,225
2017-09-28T08:46:48.248Z,225
2017-09-28T08:47:28.868Z,220
2017-09-28T08:48:09.442Z,215
2017-09-28T08:48:50.070Z,215
2017-09-28T08:49:30.665Z,215
2017-09-28T08:50:11.273Z,215
2017-09-28T08:50:51.858Z,210
2017-09-28T08:51:32.448Z,210
2017-09-28T08:52:13.053Z,205
2017-09-28T08:52:53.644Z,205
2017-09-28T08:53:34.259Z,200
2017-09-28T08:54:14.861Z,200
2017-09-28T08:54:55.468Z,195
2017-09-28T08:55:36.098Z,195
2017-09-28T08:56:16.689Z,195
2017-09-28T08:56:57.319Z,190
2017-09-28T08:57:37.925Z,190
2017-09-28T08:58:18.500Z,190
2017-09-28T08:58:59.077Z,185
2017-09-28T08:59:39.677Z,185
2017-09-28T09:00:20.289Z,185
2017-09-28T09:01:00.906Z,180
2017-09-28T09:01:41.501Z,180
2017-09-28T09:02:22.073Z,180
2017-09-28T09:03:02.681Z,180
2017-09-28T09:03:43.268Z,175
2017-09-28T09:04:23.859Z,175
2017-09-28T09:05:04.456Z,175
2017-09-28T09:05:45.041Z,175
2017-09-28T09:06:25.633Z,175
2017-09-28T09:07:06.201Z,175
2017-09-28T09:07:46.808Z,175
2017-09-28T09:08:27.403Z,175
2017-09-28T09:09:07.975Z,175
2017-09-28T09:09:48.539Z,170
2017-09-28T09:10:29.161Z,170
2017-09-28T09:11:09.753Z,170
2017-09-28T09:11:50.340Z,165
2017-09-28T09:12:30.923Z,165
2017-09-28T09:13:11.523Z,165
2017-09-28T09:13:52.097Z,160
2017-09-28T09:14:32.688Z,160
2017-09-28T09:15:13.259Z,160
2017-09-28T09:15:53.849Z,160
2017-09-28T09:16:34.417Z,160
2017-09-28T09:17:14.984Z,155
2017-09-28T09:17:55.592Z,155
2017-09-28T09:18:36.163Z,155
2017-09-28T09:19:16.725Z,155
2017-09-28T09:19:57.349Z,150
2017-09-28T09:20:37.916Z,150
2017-09-28T09:21:18.488Z,150
2017-09-28T09:21:59.097Z,150
2017-09-28T09:22:39.674Z,150
2017-09-28T09:23:20.252Z,145
2017-09-28T09:24:00.842Z,145
2017-09-28T09:24:41.434Z,145
2017-09-28T09:25:22.084Z,145
2017-09-28T09:26:02.692Z,145
2017-09-28T09:26:43.314Z,145
2017-09-28T09:27:23.947Z,145
2017-09-28T09:28:04.532Z,140
2017-09-28T09:28:45.137Z,140
2017-09-28T09:29:25.722Z,140
2017-09-28T09:30:06.304Z,140
2017-09-28T09:30:46.894Z,140
2017-09-28T09:31:27.468Z,140
2017-09-28T09:32:08.071Z,140
2017-09-28T09:32:48.694Z,140
2017-09-28T09:33:29.269Z,140
2017-09-28T09:34:09.854Z,140
2017-09-28T09:34:50.504Z,140
2017-09-28T09:35:31.126Z,140
2017-09-28T09:36:11.769Z,140
2017-09-28T09:36:52.343Z,140
2017-09-28T09:37:32.917Z,135
2017-09-28T09:38:13.499Z,135
2017-09-28T09:38:54.063Z,135
2017-09-28T09:39:34.644Z,135
2017-09-28T09:40:15.240Z,135
2017-09-28T09:40:55.806Z,135
2017-09-28T09:41:36.404Z,135